Time;durP1;ratioP1;P1;durP2;ratioP2;P2;SDS_P1;SDS_P2;PMS_P1;PMS_P2;Temp;Humidity;BMP_temperature;BMP_pressure;BME280_temperature;BME280_humidity;BME280_pressure;Samples;Min_cycle;Max_cycle;Signal;HPM_P1;HPM_P2
2022/06/28 07:02:45;;;;;;;2.65;1.70;;;;;;;;;;12918262;22;1487527;-81
2022/06/28 07:07:46;;;;;;;2.50;1.80;;;;;;;;;;12909656;23;20072;-82
2022/06/28 07:12:48;;;;;;;2.22;1.55;;;;;;;;;;12896561;23;19997;-81
2022/06/28 07:17:49;;;;;;;4.65;1.85;;;;;;;;;;12897256;23;20040;-82
2022/06/28 07:22:50;;;;;;;5.65;2.08;;;;;;;;;;12875683;23;20004;-81
2022/06/28 07:27:51;;;;;;;5.70;1.60;;;;;;;;;;12918950;23;20036;-82
2022/06/28 07:32:52;;;;;;;4.07;1.70;;;;;;;;;;12894948;23;20329;-82
2022/06/28 07:37:53;;;;;;;4.90;1.90;;;;;;;;;;12896589;23;20031;-82
2022/06/28 07:42:54;;;;;;;4.65;1.50;;;;;;;;;;12873678;23;20008;-82
2022/06/28 07:47:56;;;;;;;4.00;1.65;;;;;;;;;;12876149;23;20008;-82
2022/06/28 07:53:00;;;;;;;4.10;1.77;;;;;;;;;;12901090;23;19996;-81
2022/06/28 07:58:01;;;;;;;4.82;2.00;;;;;;;;;;12876919;23;20004;-82
2022/06/28 08:03:03;;;;;;;4.03;2.03;;;;;;;;;;12901199;23;20111;-81
2022/06/28 08:08:04;;;;;;;7.82;4.25;;;;;;;;;;12904862;23;20051;-82
2022/06/28 08:13:05;;;;;;;4.57;2.70;;;;;;;;;;12877149;23;19996;-81
2022/06/28 08:18:06;;;;;;;7.43;3.25;;;;;;;;;;12899700;23;20008;-81
2022/06/28 08:23:07;;;;;;;4.78;2.55;;;;;;;;;;12897101;23;20103;-82
2022/06/28 08:28:09;;;;;;;5.30;2.58;;;;;;;;;;12896602;23;20084;-82
2022/06/28 08:33:10;;;;;;;5.57;2.50;;;;;;;;;;12903123;23;20005;-82
2022/06/28 08:38:12;;;;;;;4.80;2.47;;;;;;;;;;12900362;23;20008;-82
2022/06/28 08:43:13;;;;;;;3.83;2.10;;;;;;;;;;12906133;23;20008;-81
2022/06/28 08:48:21;;;;;;;4.68;2.25;;;;;;;;;;12880010;23;20000;-82
2022/06/28 08:53:23;;;;;;;4.78;1.92;;;;;;;;;;12900639;23;20424;-81
2022/06/28 08:58:25;;;;;;;8.93;2.55;;;;;;;;;;12894455;23;20004;-82
2022/06/28 09:03:26;;;;;;;9.45;2.38;;;;;;;;;;12874876;23;20009;-82
2022/06/28 09:08:27;;;;;;;3.33;1.60;;;;;;;;;;12905360;23;20011;-82
2022/06/28 09:13:28;;;;;;;5.18;1.80;;;;;;;;;;12912877;23;20085;-82
2022/06/28 09:18:35;;;;;;;7.47;4.40;;;;;;;;;;12918532;23;20329;-83
2022/06/28 09:23:37;;;;;;;6.13;2.30;;;;;;;;;;12908722;23;20024;-82
2022/06/28 09:28:43;;;;;;;3.78;1.73;;;;;;;;;;12904431;23;19996;-83
2022/06/28 09:33:46;;;;;;;4.70;2.28;;;;;;;;;;12924974;23;20032;-83
2022/06/28 09:38:47;;;;;;;3.95;2.00;;;;;;;;;;12908695;23;20104;-82
2022/06/28 09:43:58;;;;;;;3.95;1.90;;;;;;;;;;12899206;23;20012;-82
2022/06/28 09:49:00;;;;;;;3.70;2.58;;;;;;;;;;12896127;23;20009;-82
2022/06/28 09:54:06;;;;;;;5.88;2.58;;;;;;;;;;12897351;23;20000;-82
2022/06/28 09:59:07;;;;;;;5.07;2.50;;;;;;;;;;12895459;23;20008;-81
2022/06/28 10:04:09;;;;;;;4.78;2.30;;;;;;;;;;12895594;23;20215;-83
2022/06/28 10:09:10;;;;;;;6.85;2.78;;;;;;;;;;12899751;23;20059;-83
2022/06/28 10:19:32;;;;;;;3.78;2.05;;;;;;;;;;12872768;23;20040;-83
2022/06/28 10:24:50;;;;;;;4.32;3.03;;;;;;;;;;12897177;23;20345;-84
2022/06/28 10:30:08;;;;;;;3.85;2.03;;;;;;;;;;12875539;23;20012;-84
2022/06/28 10:35:09;;;;;;;4.50;2.38;;;;;;;;;;12899562;23;20016;-84
2022/06/28 10:40:25;;;;;;;3.47;1.77;;;;;;;;;;12902433;23;20024;-84
2022/06/28 10:45:46;;;;;;;4.43;2.50;;;;;;;;;;12898830;23;20016;-84
2022/06/28 10:51:01;;;;;;;3.60;1.67;;;;;;;;;;12906705;23;20021;-85
2022/06/28 10:56:14;;;;;;;3.72;1.95;;;;;;;;;;12881728;23;20062;-84
2022/06/28 11:01:15;;;;;;;3.63;1.80;;;;;;;;;;12883046;23;20008;-83
2022/06/28 11:06:16;;;;;;;2.92;1.50;;;;;;;;;;12902840;23;20031;-84
2022/06/28 11:11:17;;;;;;;3.28;1.85;;;;;;;;;;12905444;23;20012;-84
2022/06/28 11:16:37;;;;;;;2.60;1.70;;;;;;;;;;12905921;23;20001;-81
2022/06/28 11:21:38;;;;;;;5.78;2.00;;;;;;;;;;12903154;23;20049;-81
2022/06/28 11:31:59;;;;;;;;;;;;;;;;;;12879806;23;20009;-81
2022/06/28 11:37:00;;;;;;;4.53;1.80;;;;;;;;;;12877820;23;20312;-82
2022/06/28 11:42:01;;;;;;;3.45;2.00;;;;;;;;;;12903917;23;20004;-82
2022/06/28 11:47:03;;;;;;;5.95;2.20;;;;;;;;;;12903920;23;20005;-83
2022/06/28 11:52:04;;;;;;;3.53;1.40;;;;;;;;;;12903442;23;20022;-82
2022/06/28 11:57:17;;;;;;;3.00;1.30;;;;;;;;;;12901884;23;20095;-80
2022/06/28 12:02:37;;;;;;;2.47;1.58;;;;;;;;;;12902053;23;20404;-82
2022/06/28 12:07:40;;;;;;;9.55;4.63;;;;;;;;;;12914595;22;20095;-81
2022/06/28 12:12:42;;;;;;;2.70;2.10;;;;;;;;;;12913871;23;20054;-80
2022/06/28 12:17:44;;;;;;;4.30;1.40;;;;;;;;;;12939785;22;20336;-81
2022/06/28 12:22:55;;;;;;;5.28;1.83;;;;;;;;;;12914393;23;20400;-84
2022/06/28 12:27:56;;;;;;;3.67;1.60;;;;;;;;;;12915883;22;20019;-84
2022/06/28 12:32:58;;;;;;;2.50;1.30;;;;;;;;;;12922002;23;20011;-83
2022/06/28 12:37:59;;;;;;;4.55;1.48;;;;;;;;;;12930922;22;20008;-85
2022/06/28 12:43:00;;;;;;;4.13;3.20;;;;;;;;;;12918896;23;20004;-85
2022/06/28 12:48:02;;;;;;;3.63;1.90;;;;;;;;;;12917482;22;20340;-85
2022/06/28 12:53:03;;;;;;;4.15;1.50;;;;;;;;;;12919272;23;20000;-84
2022/06/28 12:58:04;;;;;;;3.00;1.50;;;;;;;;;;12945504;22;20004;-84
2022/06/28 13:03:05;;;;;;;2.67;1.30;;;;;;;;;;12917466;23;20072;-84
2022/06/28 13:08:06;;;;;;;6.50;1.58;;;;;;;;;;12920062;22;20004;-86
2022/06/28 13:13:07;;;;;;;2.25;1.50;;;;;;;;;;12909978;23;20362;-86
2022/06/28 13:18:09;;;;;;;3.83;1.98;;;;;;;;;;12911451;22;20004;-86
2022/06/28 13:23:12;;;;;;;2.63;1.40;;;;;;;;;;12927337;23;20004;-85
2022/06/28 13:28:16;;;;;;;2.67;1.50;;;;;;;;;;12935327;22;20004;-85
2022/06/28 13:33:19;;;;;;;6.68;5.15;;;;;;;;;;12912364;23;20004;-84
2022/06/28 13:38:22;;;;;;;3.50;1.80;;;;;;;;;;12936998;22;20087;-85
2022/06/28 13:43:36;;;;;;;3.88;1.40;;;;;;;;;;12934143;23;20007;-82
2022/06/28 13:48:38;;;;;;;3.03;1.50;;;;;;;;;;12907499;22;20065;-81
2022/06/28 13:53:40;;;;;;;5.25;1.50;;;;;;;;;;12911013;23;20000;-84
2022/06/28 13:59:15;;;;;;;8.02;4.00;;;;;;;;;;12931453;22;20000;-85
2022/06/28 14:05:15;;;;;;;2.58;1.30;;;;;;;;;;12962232;23;20009;-86
2022/06/28 14:10:17;;;;;;;3.33;1.63;;;;;;;;;;12662944;23;20073;-86
2022/06/28 14:15:31;;;;;;;3.17;1.50;;;;;;;;;;12659792;23;20014;-82
2022/06/28 14:26:16;;;;;;;3.22;1.25;;;;;;;;;;12640919;23;20010;-83
2022/06/28 14:31:17;;;;;;;3.33;1.55;;;;;;;;;;12884202;23;20071;-83
2022/06/28 14:36:24;;;;;;;2.22;1.20;;;;;;;;;;12941208;23;20008;-82
2022/06/28 14:41:26;;;;;;;4.25;1.30;;;;;;;;;;12940227;23;20029;-83
2022/06/28 14:46:28;;;;;;;3.88;2.00;;;;;;;;;;12936775;23;20012;-84
2022/06/28 14:51:48;;;;;;;2.17;1.20;;;;;;;;;;12946242;23;19995;-83
2022/06/28 14:56:49;;;;;;;4.22;1.40;;;;;;;;;;12943891;22;20351;-85
2022/06/28 15:01:50;;;;;;;4.55;1.48;;;;;;;;;;12932127;23;20004;-85
2022/06/28 15:07:00;;;;;;;5.50;1.60;;;;;;;;;;12913257;22;20036;-85
2022/06/28 15:12:01;;;;;;;8.25;6.63;;;;;;;;;;12914885;23;20004;-85
2022/06/28 15:17:02;;;;;;;3.75;1.45;;;;;;;;;;12945827;22;20019;-85
2022/06/28 15:32:46;;;;;;;2.38;1.38;;;;;;;;;;12959474;23;20011;-86
2022/06/28 15:49:08;;;;;;;3.05;1.30;;;;;;;;;;12944458;22;20267;-86
2022/06/28 15:54:09;;;;;;;2.28;0.98;;;;;;;;;;12913443;23;20428;-86
2022/06/28 15:59:11;;;;;;;2.80;1.42;;;;;;;;;;12912862;22;20000;-86
2022/06/28 16:04:15;;;;;;;3.40;1.30;;;;;;;;;;12960428;23;20007;-86
2022/06/28 16:09:19;;;;;;;11.35;1.92;;;;;;;;;;12937796;22;20008;-85
2022/06/28 16:25:42;;;;;;;3.53;1.17;;;;;;;;;;12961185;23;20000;-82
2022/06/28 16:30:46;;;;;;;5.05;2.42;;;;;;;;;;12935989;23;20028;-81
